createdAt,value
2018-06-19T00:01:50.496Z,3.20
2018-06-19T00:04:17.653Z,3.27
2018-06-19T00:06:44.809Z,3.03
2018-06-19T00:09:11.963Z,3.50
2018-06-19T00:11:39.110Z,3.57
2018-06-19T00:14:06.296Z,3.30
2018-06-19T00:16:33.599Z,3.27
2018-06-19T00:19:01.389Z,3.57
2018-06-19T00:21:32.147Z,3.20
2018-06-19T00:23:59.314Z,3.27
2018-06-19T00:26:26.464Z,2.93
2018-06-19T00:28:53.645Z,2.73
2018-06-19T00:31:20.852Z,2.80
2018-06-19T00:33:48.000Z,2.90
2018-06-19T00:36:15.188Z,3.43
2018-06-19T00:38:42.340Z,3.17
2018-06-19T00:41:09.473Z,3.60
2018-06-19T00:43:36.628Z,3.20
2018-06-19T00:46:04.397Z,3.00
2018-06-19T00:48:31.556Z,3.27
2018-06-19T00:50:58.701Z,3.03
2018-06-19T00:53:25.843Z,3.07
2018-06-19T00:55:53.048Z,3.17
2018-06-19T00:58:20.232Z,3.23
2018-06-19T01:00:47.379Z,3.20
2018-06-19T01:03:14.557Z,2.90
2018-06-19T01:05:41.680Z,3.30
2018-06-19T01:08:08.827Z,2.90
2018-06-19T01:10:35.996Z,3.53
2018-06-19T01:13:03.179Z,3.23
2018-06-19T01:15:30.334Z,3.30
2018-06-19T01:17:57.500Z,3.07
2018-06-19T01:20:24.652Z,3.23
2018-06-19T01:22:51.796Z,3.40
2018-06-19T01:25:18.948Z,3.53
2018-06-19T01:27:46.093Z,3.43
2018-06-19T01:30:16.292Z,3.07
2018-06-19T01:32:43.432Z,3.30
2018-06-19T01:35:10.577Z,3.30
2018-06-19T01:37:37.755Z,3.20
2018-06-19T01:40:04.886Z,3.20
2018-06-19T01:42:32.016Z,3.00
2018-06-19T01:44:59.139Z,3.80
2018-06-19T01:47:26.276Z,3.50
2018-06-19T01:49:53.441Z,3.30
2018-06-19T01:52:20.576Z,3.90
2018-06-19T01:54:47.724Z,3.40
2018-06-19T01:57:14.869Z,3.43
2018-06-19T01:59:42.012Z,3.63
2018-06-19T02:02:09.321Z,3.90
2018-06-19T02:04:36.456Z,3.90
2018-06-19T02:07:03.584Z,3.50
2018-06-19T02:09:30.732Z,4.10
2018-06-19T02:11:57.880Z,4.13
2018-06-19T02:14:25.057Z,3.37
2018-06-19T02:16:52.183Z,3.90
2018-06-19T02:19:19.324Z,4.43
2018-06-19T02:21:46.480Z,4.37
2018-06-19T02:24:13.621Z,3.93
2018-06-19T02:26:40.778Z,4.67
2018-06-19T02:29:07.935Z,4.17
2018-06-19T02:31:35.076Z,4.73
2018-06-19T02:34:02.225Z,4.13
2018-06-19T02:36:29.371Z,4.30
2018-06-19T02:38:56.563Z,5.20
2018-06-19T02:41:23.692Z,4.87
2018-06-19T02:43:50.846Z,5.17
2018-06-19T02:46:18.028Z,5.00
2018-06-19T02:48:45.221Z,5.53
2018-06-19T02:51:12.388Z,5.03
2018-06-19T02:53:39.553Z,5.60
2018-06-19T02:56:06.700Z,5.50
2018-06-19T02:58:33.857Z,5.53
2018-06-19T03:01:01.001Z,5.50
2018-06-19T03:03:28.161Z,4.53
2018-06-19T03:05:55.320Z,5.47
2018-06-19T03:08:22.471Z,5.30
2018-06-19T03:10:49.616Z,4.63
2018-06-19T03:13:16.774Z,5.60
2018-06-19T03:15:43.944Z,5.83
2018-06-19T03:18:11.157Z,6.63
2018-06-19T03:20:38.288Z,7.07
2018-06-19T03:23:05.430Z,7.53
2018-06-19T03:25:32.624Z,7.90
2018-06-19T03:27:59.773Z,7.40
2018-06-19T03:30:26.946Z,8.10
2018-06-19T03:32:54.057Z,8.00
2018-06-19T03:35:21.192Z,8.10
2018-06-19T03:37:48.348Z,8.37
2018-06-19T03:40:15.503Z,8.67
2018-06-19T03:42:42.632Z,8.10
2018-06-19T03:45:09.781Z,8.50
2018-06-19T03:47:36.925Z,8.77
2018-06-19T03:50:04.129Z,8.63
2018-06-19T03:52:31.326Z,8.50
2018-06-19T03:54:58.464Z,9.57
2018-06-19T03:57:25.600Z,9.50
2018-06-19T03:59:52.737Z,10.20
2018-06-19T04:02:19.924Z,10.57
2018-06-19T04:04:47.061Z,9.47
2018-06-19T04:07:14.235Z,10.63
2018-06-19T04:09:41.369Z,11.03
2018-06-19T04:12:08.568Z,10.33
2018-06-19T04:14:35.692Z,10.00
2018-06-19T04:17:02.861Z,10.47
2018-06-19T04:19:30.013Z,11.00
2018-06-19T04:21:57.195Z,10.80
2018-06-19T04:24:24.340Z,10.70
2018-06-19T04:26:51.489Z,11.00
2018-06-19T04:29:18.628Z,10.80
2018-06-19T04:31:45.777Z,10.63
2018-06-19T04:34:12.953Z,10.63
2018-06-19T04:36:40.099Z,10.77
2018-06-19T04:39:08.924Z,11.13
2018-06-19T04:41:36.073Z,11.33
2018-06-19T04:44:03.476Z,10.90
2018-06-19T04:46:30.625Z,11.23
2018-06-19T04:48:57.776Z,11.23
2018-06-19T04:51:24.928Z,10.90
2018-06-19T04:53:52.073Z,11.40
2018-06-19T04:56:19.239Z,11.77
2018-06-19T04:58:46.417Z,11.23
2018-06-19T05:01:13.543Z,11.83
2018-06-19T05:03:40.687Z,10.77
2018-06-19T05:06:07.888Z,11.93
2018-06-19T05:08:35.044Z,10.73
2018-06-19T05:11:02.196Z,10.37
2018-06-19T05:13:29.331Z,9.80
2018-06-19T05:15:56.461Z,10.20
2018-06-19T05:18:23.604Z,10.37
2018-06-19T05:20:50.749Z,10.60
2018-06-19T05:23:17.905Z,10.60
2018-06-19T05:25:45.052Z,10.03
2018-06-19T05:28:12.248Z,10.30
2018-06-19T05:30:39.401Z,10.53
2018-06-19T05:33:06.541Z,10.73
2018-06-19T05:35:33.740Z,11.60
2018-06-19T05:38:00.918Z,11.10
2018-06-19T05:40:28.064Z,11.80
2018-06-19T05:42:55.203Z,11.63
2018-06-19T05:45:22.352Z,11.30
2018-06-19T05:47:49.496Z,12.93
2018-06-19T05:50:16.672Z,12.20
2018-06-19T05:52:43.864Z,12.40
2018-06-19T05:55:11.025Z,12.50
2018-06-19T05:57:38.180Z,12.00
2018-06-19T06:00:05.508Z,12.03
2018-06-19T06:02:32.669Z,13.00
2018-06-19T06:04:59.805Z,12.63
2018-06-19T06:07:26.980Z,12.53
2018-06-19T06:09:54.420Z,13.07
2018-06-19T06:12:21.556Z,13.47
2018-06-19T06:14:48.704Z,13.13
2018-06-19T06:17:15.871Z,13.17
2018-06-19T06:19:43.060Z,13.53
2018-06-19T06:22:10.275Z,13.40
2018-06-19T06:24:37.379Z,12.53
2018-06-19T06:27:04.952Z,13.60
2018-06-19T06:29:32.064Z,14.85
2018-06-19T06:31:59.205Z,14.17
2018-06-19T06:34:26.344Z,12.67
2018-06-19T06:36:53.477Z,12.73
2018-06-19T06:39:20.664Z,11.97
2018-06-19T06:41:47.809Z,13.20
2018-06-19T06:44:14.953Z,13.70
2018-06-19T06:46:42.128Z,12.63
2018-06-19T06:49:09.302Z,14.17
2018-06-19T06:51:36.453Z,14.57
2018-06-19T06:54:03.605Z,13.33
2018-06-19T06:56:30.761Z,13.63
2018-06-19T06:58:57.912Z,13.93
2018-06-19T07:01:25.045Z,15.03
2018-06-19T07:03:52.213Z,15.90
2018-06-19T07:06:19.458Z,15.47
2018-06-19T07:08:46.612Z,14.97
2018-06-19T07:11:13.759Z,14.47
2018-06-19T07:13:40.909Z,16.17
2018-06-19T07:16:08.073Z,16.00
2018-06-19T07:18:35.414Z,15.27
2018-06-19T07:21:02.595Z,14.90
2018-06-19T07:23:29.741Z,15.67
2018-06-19T07:25:56.930Z,16.17
2018-06-19T07:28:24.080Z,18.33
2018-06-19T07:30:51.356Z,17.90
2018-06-19T07:33:18.468Z,16.30
2018-06-19T07:35:45.609Z,16.70
2018-06-19T07:38:12.899Z,16.43
2018-06-19T07:40:39.924Z,16.43
2018-06-19T07:43:07.089Z,15.83
2018-06-19T07:45:34.356Z,17.40
2018-06-19T07:48:01.557Z,16.90
2018-06-19T07:50:29.547Z,17.00
2018-06-19T07:52:56.688Z,17.17
2018-06-19T07:55:23.829Z,17.10
2018-06-19T07:57:51.308Z,18.37
2018-06-19T08:00:18.484Z,18.00
2018-06-19T08:02:45.657Z,17.10
2018-06-19T08:05:13.066Z,19.00
2018-06-19T08:07:40.197Z,19.43
2018-06-19T08:10:07.358Z,19.63
2018-06-19T08:12:34.524Z,19.60
2018-06-19T08:15:01.677Z,20.90
2018-06-19T08:17:28.833Z,21.10
2018-06-19T08:19:56.005Z,21.53
2018-06-19T08:22:23.189Z,21.47
2018-06-19T08:24:50.344Z,22.47
2018-06-19T08:27:17.721Z,21.70
2018-06-19T08:29:44.871Z,22.53
2018-06-19T08:32:12.020Z,22.77
2018-06-19T08:34:39.157Z,22.77
2018-06-19T08:37:06.328Z,23.63
2018-06-19T08:39:33.477Z,22.60
2018-06-19T08:42:00.616Z,23.13
2018-06-19T08:44:27.804Z,24.50
2018-06-19T08:46:54.936Z,24.23
2018-06-19T08:49:22.072Z,24.40
2018-06-19T08:51:49.216Z,25.07
2018-06-19T08:54:16.398Z,24.40
2018-06-19T08:56:43.497Z,24.97
2018-06-19T08:59:10.682Z,26.27
2018-06-19T09:01:37.840Z,23.93
2018-06-19T09:04:04.988Z,25.73
2018-06-19T09:06:32.172Z,25.37
2018-06-19T09:08:59.345Z,26.77
2018-06-19T09:11:26.497Z,25.57
2018-06-19T09:13:53.672Z,24.10
2018-06-19T09:16:20.817Z,23.33
2018-06-19T09:18:47.984Z,21.67
2018-06-19T09:21:15.124Z,20.77
2018-06-19T09:23:42.330Z,21.97
2018-06-19T09:26:09.548Z,22.50
2018-06-19T09:28:36.707Z,20.83
2018-06-19T09:31:03.976Z,21.60
2018-06-19T09:33:31.176Z,21.40
2018-06-19T09:35:58.336Z,20.77
2018-06-19T09:38:25.524Z,20.50
2018-06-19T09:40:52.728Z,20.20
2018-06-19T09:43:19.876Z,19.50
2018-06-19T09:45:47.028Z,20.17
2018-06-19T09:48:14.175Z,21.50
2018-06-19T09:50:41.324Z,19.87
2018-06-19T09:53:08.524Z,20.83
2018-06-19T09:55:35.728Z,19.80
2018-06-19T09:58:02.952Z,19.10
2018-06-19T10:00:33.173Z,18.57
2018-06-19T10:03:00.357Z,19.40
2018-06-19T10:05:28.047Z,18.70
2018-06-19T10:07:55.184Z,18.00
2018-06-19T10:10:22.359Z,17.20
2018-06-19T10:12:49.528Z,17.63
2018-06-19T10:15:16.742Z,17.70
2018-06-19T10:17:43.896Z,18.10
2018-06-19T10:20:11.061Z,17.77
2018-06-19T10:22:38.255Z,18.00
2018-06-19T10:25:05.416Z,18.67
2018-06-19T10:27:32.568Z,17.80
2018-06-19T10:29:59.700Z,17.87
2018-06-19T10:32:26.863Z,18.10
2018-06-19T10:34:54.075Z,18.77
2018-06-19T10:37:21.208Z,18.80
2018-06-19T10:39:48.358Z,16.87
2018-06-19T10:42:15.545Z,15.67
2018-06-19T10:44:42.687Z,17.53
2018-06-19T10:47:09.853Z,16.50
2018-06-19T10:49:37.004Z,16.77
2018-06-19T10:52:04.180Z,16.57
2018-06-19T10:54:31.340Z,16.03
2018-06-19T10:56:58.493Z,17.40
2018-06-19T10:59:25.640Z,17.50
2018-06-19T11:01:52.847Z,16.33
2018-06-19T11:04:20.009Z,17.43
2018-06-19T11:06:47.174Z,17.33
2018-06-19T11:09:14.316Z,17.83
2018-06-19T11:11:41.819Z,16.27
2018-06-19T11:14:09.063Z,17.73
2018-06-19T11:16:36.140Z,16.00
2018-06-19T11:19:03.325Z,17.23
2018-06-19T11:21:30.553Z,15.47
2018-06-19T11:23:57.726Z,16.10
2018-06-19T11:26:24.860Z,17.27
2018-06-19T11:28:52.013Z,15.50
2018-06-19T11:31:19.275Z,15.40
2018-06-19T11:33:46.463Z,15.07
2018-06-19T11:36:13.940Z,14.63
2018-06-19T11:38:41.080Z,13.97
2018-06-19T11:41:08.256Z,15.70
2018-06-19T11:43:35.417Z,13.37
2018-06-19T11:46:02.625Z,14.40
2018-06-19T11:48:29.813Z,14.70
2018-06-19T11:50:57.000Z,13.97
2018-06-19T11:53:24.191Z,14.50
2018-06-19T11:55:51.399Z,14.70
2018-06-19T11:58:18.560Z,15.07
2018-06-19T12:00:45.701Z,16.37
2018-06-19T12:03:12.848Z,17.87
2018-06-19T12:05:40.002Z,18.00
2018-06-19T12:08:07.147Z,17.97
2018-06-19T12:10:35.109Z,16.20
2018-06-19T12:13:02.272Z,16.93
2018-06-19T12:15:29.438Z,15.80
2018-06-19T12:17:56.604Z,15.83
2018-06-19T12:20:23.744Z,16.17
2018-06-19T12:22:50.883Z,16.23
2018-06-19T12:25:18.044Z,15.17
2018-06-19T12:27:45.214Z,15.33
2018-06-19T12:30:14.461Z,15.40
2018-06-19T12:32:41.625Z,16.20
2018-06-19T12:35:08.756Z,17.10
2018-06-19T12:37:35.888Z,16.23
2018-06-19T12:40:03.071Z,19.57
2018-06-19T12:42:30.248Z,17.73
2018-06-19T12:44:57.395Z,18.47
2018-06-19T12:47:24.532Z,19.63
2018-06-19T12:52:08.124Z,20.17
2018-06-19T12:56:42.153Z,20.77
2018-06-19T12:59:09.307Z,19.53
2018-06-19T13:01:36.452Z,20.17
2018-06-19T13:04:15.101Z,20.60
2018-06-19T13:06:42.256Z,20.50
2018-06-19T13:09:09.400Z,20.47
2018-06-19T13:11:36.637Z,19.37
2018-06-19T13:14:15.380Z,19.47
2018-06-19T13:16:54.030Z,19.70
2018-06-19T13:19:32.721Z,19.80
2018-06-19T13:21:59.900Z,19.77
2018-06-19T13:24:27.039Z,20.27
2018-06-19T13:26:54.185Z,21.60
2018-06-19T13:29:44.144Z,21.97
2018-06-19T13:32:11.316Z,20.37
2018-06-19T13:34:38.525Z,21.50
2018-06-19T13:37:05.935Z,19.93
2018-06-19T13:39:33.860Z,21.70
2018-06-19T13:42:13.192Z,21.63
2018-06-19T13:45:03.065Z,25.10
2018-06-19T13:47:30.259Z,23.63
2018-06-19T13:49:57.424Z,22.57
2018-06-19T13:52:24.612Z,22.47
2018-06-19T13:54:51.944Z,23.27
2018-06-19T13:57:35.441Z,22.57
2018-06-19T14:00:04.100Z,24.23
2018-06-19T14:02:31.280Z,23.63
2018-06-19T14:04:59.207Z,22.60
2018-06-19T14:07:27.363Z,23.20
2018-06-19T14:10:06.333Z,19.83
2018-06-19T14:13:12.263Z,22.30
2018-06-19T14:15:47.422Z,21.40
2018-06-19T14:18:15.481Z,21.20
2018-06-19T14:20:42.910Z,19.93
2018-06-19T14:23:10.405Z,21.27
2018-06-19T14:25:37.544Z,19.73
2018-06-19T14:28:04.739Z,19.70
2018-06-19T14:30:31.893Z,19.80
2018-06-19T14:32:59.063Z,20.97
2018-06-19T14:35:26.196Z,20.90
2018-06-19T14:37:53.344Z,21.03
2018-06-19T14:40:20.500Z,19.50
2018-06-19T14:42:47.636Z,19.17
2018-06-19T14:45:14.792Z,19.20
2018-06-19T14:47:42.649Z,19.87
2018-06-19T14:50:09.968Z,19.50
2018-06-19T14:52:37.221Z,23.03
2018-06-19T14:55:05.118Z,20.63
2018-06-19T14:57:32.277Z,23.40
2018-06-19T14:59:59.435Z,22.07
2018-06-19T15:02:26.575Z,20.57
2018-06-19T15:04:53.712Z,21.13
2018-06-19T15:07:20.861Z,20.63
2018-06-19T15:09:48.000Z,20.63
2018-06-19T15:12:15.140Z,21.13
2018-06-19T15:14:42.331Z,21.87
2018-06-19T15:17:09.982Z,23.40
2018-06-19T15:19:37.161Z,20.90
2018-06-19T15:22:04.380Z,21.40
2018-06-19T15:24:31.528Z,21.27
2018-06-19T15:26:58.689Z,20.93
2018-06-19T15:29:25.821Z,20.50
2018-06-19T15:31:53.016Z,18.60
2018-06-19T15:34:20.148Z,19.63
2018-06-19T15:36:47.292Z,18.83
2018-06-19T15:39:14.824Z,16.63
2018-06-19T15:41:42.493Z,16.23
2018-06-19T15:44:09.694Z,16.83
2018-06-19T15:46:36.865Z,16.93
2018-06-19T15:49:04.670Z,16.17
2018-06-19T15:51:32.325Z,16.20
2018-06-19T15:53:59.503Z,18.73
2018-06-19T15:56:26.681Z,18.63
2018-06-19T15:58:53.837Z,17.53
2018-06-19T16:01:21.046Z,18.00
2018-06-19T16:03:48.237Z,17.60
2018-06-19T16:06:15.385Z,16.53
2018-06-19T16:08:42.564Z,17.10
2018-06-19T16:11:09.725Z,16.27
2018-06-19T16:13:36.880Z,14.43
2018-06-19T16:16:04.089Z,12.87
2018-06-19T16:18:31.225Z,13.37
2018-06-19T16:20:58.390Z,11.90
2018-06-19T16:23:25.576Z,11.60
2018-06-19T16:25:52.828Z,11.03
2018-06-19T16:28:19.980Z,10.67
2018-06-19T16:30:47.137Z,10.33
2018-06-19T16:33:14.296Z,10.07
2018-06-19T16:35:41.436Z,10.07
2018-06-19T16:38:08.608Z,11.07
2018-06-19T16:40:35.756Z,11.37
2018-06-19T16:43:02.915Z,11.83
2018-06-19T16:45:30.050Z,11.83
2018-06-19T16:47:57.200Z,11.37
2018-06-19T16:50:24.348Z,10.57
2018-06-19T16:52:51.519Z,12.73
2018-06-19T16:55:18.677Z,10.40
2018-06-19T16:57:45.862Z,9.57
2018-06-19T17:00:13.088Z,9.10
2018-06-19T17:02:40.153Z,9.00
2018-06-19T17:05:07.298Z,8.53
2018-06-19T17:07:34.461Z,8.30
2018-06-19T17:10:01.696Z,8.47
2018-06-19T17:12:28.844Z,9.67
2018-06-19T17:14:56.025Z,8.47
2018-06-19T17:17:23.180Z,9.70
2018-06-19T17:19:50.304Z,9.23
2018-06-19T17:22:17.475Z,8.47
2018-06-19T17:24:44.686Z,9.23
2018-06-19T17:27:11.900Z,9.03
2018-06-19T17:29:39.096Z,9.83
2018-06-19T17:32:06.321Z,10.37
2018-06-19T17:34:33.460Z,10.03
2018-06-19T17:37:00.644Z,9.73
2018-06-19T17:39:27.884Z,9.17
2018-06-19T17:41:55.029Z,9.77
2018-06-19T17:44:22.205Z,10.43
2018-06-19T17:46:49.380Z,9.43
2018-06-19T17:49:16.510Z,9.53
2018-06-19T17:51:43.672Z,9.60
2018-06-19T17:54:10.814Z,9.73
2018-06-19T17:56:37.976Z,9.80
2018-06-19T17:59:05.152Z,9.40
2018-06-19T18:01:32.316Z,10.23
2018-06-19T18:03:59.450Z,10.20
2018-06-19T18:06:26.620Z,9.67
2018-06-19T18:08:53.762Z,9.80
2018-06-19T18:11:20.963Z,10.47
2018-06-19T18:13:48.107Z,10.13
2018-06-19T18:16:15.274Z,10.17
2018-06-19T18:18:42.428Z,10.43
2018-06-19T18:21:09.828Z,9.93
2018-06-19T18:23:36.968Z,8.57
2018-06-19T18:26:04.124Z,9.47
2018-06-19T18:28:31.277Z,10.13
2018-06-19T18:30:58.458Z,10.10
2018-06-19T18:33:25.596Z,9.37
2018-06-19T18:35:52.745Z,9.60
2018-06-19T18:38:19.888Z,11.03
2018-06-19T18:40:47.061Z,11.20
2018-06-19T18:43:14.268Z,12.30
2018-06-19T18:45:41.432Z,16.97
2018-06-19T18:48:08.577Z,17.43
2018-06-19T18:50:35.757Z,16.37
2018-06-19T18:53:02.920Z,18.10
2018-06-19T18:55:30.109Z,16.10
2018-06-19T18:57:57.260Z,22.10
2018-06-19T19:00:24.413Z,20.07
2018-06-19T19:02:51.615Z,19.77
2018-06-19T19:05:18.748Z,20.70
2018-06-19T19:07:45.919Z,21.57
2018-06-19T19:10:18.832Z,20.73
2018-06-19T19:12:46.628Z,21.23
2018-06-19T19:15:19.597Z,21.40
2018-06-19T19:17:52.544Z,22.83
2018-06-19T19:20:19.692Z,21.67
2018-06-19T19:22:46.839Z,22.97
2018-06-19T19:25:14.405Z,22.23
2018-06-19T19:27:47.160Z,22.97
2018-06-19T19:30:14.417Z,21.50
2018-06-19T19:32:41.568Z,20.20
2018-06-19T19:35:08.734Z,18.40
2018-06-19T19:37:41.708Z,16.23
2018-06-19T19:40:08.904Z,16.00
2018-06-19T19:42:36.055Z,15.60
2018-06-19T19:45:03.318Z,15.27
2018-06-19T19:47:36.125Z,14.60
2018-06-19T19:50:03.365Z,13.03
2018-06-19T19:52:30.579Z,11.70
2018-06-19T19:54:57.758Z,11.13
2018-06-19T19:57:30.581Z,11.00
2018-06-19T19:59:57.768Z,10.67
2018-06-19T20:02:24.957Z,9.83
2018-06-19T20:04:52.131Z,9.23
2018-06-19T20:07:19.293Z,9.87
2018-06-19T20:09:46.456Z,9.30
2018-06-19T20:12:13.624Z,9.00
2018-06-19T20:14:40.768Z,8.60
2018-06-19T20:17:07.912Z,8.77
2018-06-19T20:19:35.090Z,8.40
2018-06-19T20:22:02.293Z,8.87
2018-06-19T20:24:29.480Z,8.43
2018-06-19T20:26:56.665Z,7.47
2018-06-19T20:29:23.859Z,7.67
2018-06-19T20:31:51.020Z,7.83
2018-06-19T20:34:18.178Z,8.20
2018-06-19T20:36:45.324Z,7.93
2018-06-19T20:39:12.502Z,7.40
2018-06-19T20:41:39.656Z,7.20
2018-06-19T20:44:06.840Z,6.90
2018-06-19T20:46:34.109Z,7.07
2018-06-19T20:49:01.268Z,6.97
2018-06-19T20:51:28.424Z,7.47
2018-06-19T20:53:55.553Z,7.40
2018-06-19T20:56:23.181Z,7.10
2018-06-19T20:58:50.332Z,6.67
2018-06-19T21:01:17.488Z,6.80
2018-06-19T21:03:44.644Z,6.33
2018-06-19T21:06:11.816Z,7.37
2018-06-19T21:08:40.083Z,7.40
2018-06-19T21:11:07.956Z,6.80
2018-06-19T21:13:35.408Z,6.30
2018-06-19T21:16:02.672Z,6.30
2018-06-19T21:18:29.864Z,7.87
2018-06-19T21:20:56.999Z,7.17
2018-06-19T21:23:24.136Z,6.53
2018-06-19T21:25:51.264Z,6.73
2018-06-19T21:28:18.412Z,7.20
2018-06-19T21:30:45.609Z,6.93
2018-06-19T21:33:12.757Z,6.43
2018-06-19T21:35:39.908Z,5.27
2018-06-19T21:38:07.060Z,6.00
2018-06-19T21:40:34.195Z,5.67
2018-06-19T21:43:01.336Z,5.40
2018-06-19T21:45:28.480Z,5.53
2018-06-19T21:47:55.616Z,4.93
2018-06-19T21:50:23.191Z,5.10
2018-06-19T21:52:50.344Z,4.93
2018-06-19T21:55:17.472Z,4.80
2018-06-19T21:57:44.708Z,5.27
2018-06-19T22:00:11.865Z,5.13
2018-06-19T22:02:39.034Z,4.87
2018-06-19T22:05:06.180Z,4.97
2018-06-19T22:07:33.457Z,4.60
2018-06-19T22:10:00.608Z,4.20
2018-06-19T22:12:27.780Z,4.17
2018-06-19T22:14:54.920Z,4.67
2018-06-19T22:17:22.080Z,4.67
2018-06-19T22:19:49.244Z,4.27
2018-06-19T22:22:16.379Z,4.73
2018-06-19T22:24:43.500Z,4.00
2018-06-19T22:27:10.640Z,4.33
2018-06-19T22:29:37.768Z,4.43
2018-06-19T22:32:04.929Z,4.30
2018-06-19T22:34:32.135Z,3.73
2018-06-19T22:36:59.279Z,4.83
2018-06-19T22:39:26.457Z,4.80
2018-06-19T22:41:53.618Z,5.13
2018-06-19T22:44:20.756Z,5.33
2018-06-19T22:46:47.966Z,5.40
2018-06-19T22:49:15.140Z,5.90
2018-06-19T22:51:42.297Z,5.50
2018-06-19T22:54:09.432Z,5.50
2018-06-19T22:56:36.586Z,5.10
2018-06-19T22:59:03.751Z,5.50
2018-06-19T23:01:30.907Z,5.30
2018-06-19T23:03:58.045Z,5.73
2018-06-19T23:06:25.209Z,5.73
2018-06-19T23:08:52.332Z,5.47
2018-06-19T23:11:19.478Z,5.73
2018-06-19T23:13:46.651Z,5.90
2018-06-19T23:16:13.804Z,5.80
2018-06-19T23:18:40.935Z,5.47
2018-06-19T23:21:08.085Z,5.43
2018-06-19T23:23:35.249Z,5.73
2018-06-19T23:26:02.420Z,4.70
2018-06-19T23:28:29.564Z,5.33
2018-06-19T23:30:56.735Z,5.13
2018-06-19T23:33:23.881Z,5.27
2018-06-19T23:35:51.032Z,5.00
2018-06-19T23:38:18.160Z,5.60
2018-06-19T23:40:45.420Z,5.47
2018-06-19T23:43:12.561Z,5.23
2018-06-19T23:45:39.696Z,4.63
2018-06-19T23:48:06.949Z,5.10
2018-06-19T23:50:34.092Z,5.80
2018-06-19T23:53:01.270Z,5.00
2018-06-19T23:55:28.444Z,4.60
2018-06-19T23:57:55.640Z,4.87
